Flight Track Log - Related Links

Times and Time Zones

All times are in EDT time to prevent confusion due to time zone crossing. See the RPA3228 flight status page for this flight to view local times or setup timezone preferences in your user account.

Time Position Orientation Groundspeed Altitude Reporting Facility
EDT Latitude Longitude Course Direction KTS MPH feet Rate Location/Type
Tue 07:41:14 AM 36.1333 -86.6833 64° Northeast 155 178 1,500  Level Nashville TRACON
Tue 07:42:26 AM 36.1583 -86.7528 294° West 163 188 3,800 2,500 Climbing Memphis Center
Tue 07:43:26 AM 36.2136 -86.7197 26° Northeast 154 177 7,000 3,550 Climbing Memphis Center
Tue 07:44:00 AM 36.1871 -86.1572 80° East  Level FlightAware Approximate
Tue 07:44:26 AM 36.2253 -86.6239 81° East 226 260 10,900  Level Memphis Center
Tue 07:45:00 AM 36.2136 -86.0328 64° Northeast  Level FlightAware Approximate
Tue 07:45:26 AM 36.2389 -86.5178 81° East 275 316 13,700  Level Memphis Center
Tue 07:46:00 AM 36.2601 -85.9165 64° Northeast  Level FlightAware Approximate
Tue 07:46:26 AM 36.2517 -86.3961 83° East 312 359 16,600  Level Memphis Center
Tue 07:47:26 AM 36.2644 -86.2747 83° East 340 391 19,300 2,650 Climbing Memphis Center
Tue 07:48:26 AM 36.2772 -86.1556 82° East 351 404 21,900 2,361 Climbing Memphis Center
Tue 07:50:01 AM 36.2989 -85.9686 82° East 373 429 25,400 1,962 Climbing Indianapolis Center
Tue 07:51:02 AM 36.3136 -85.8353 82° East 383 441 27,000 780 Climbing Indianapolis Center
Tue 07:52:04 AM 36.3686 -85.7022 63° Northeast 398 458 27,000  Level Indianapolis Center
Tue 07:53:05 AM 36.4256 -85.5794 60° Northeast 404 465 27,000  Level Indianapolis Center
Tue 07:54:07 AM 36.4825 -85.4594 59° Northeast 402 463 27,000 293 Level Indianapolis Center
Tue 07:55:08 AM 36.5228 -85.3267 69° East 415 478 27,600 1,171 Climbing Indianapolis Center
Tue 07:56:10 AM 36.5392 -85.1822 82° East 421 484 29,400 1,756 Climbing Indianapolis Center
Tue 07:57:11 AM 36.5653 -85.0414 77° East 418 481 31,200 1,756 Climbing Indianapolis Center
Tue 07:58:13 AM 36.6178 -84.8825 68° East 411 473 33,000 871 Climbing Indianapolis Center
Tue 07:59:15 AM 36.6600 -84.7539 68° East 402 463 33,000  Level Indianapolis Center
Tue 08:00:16 AM 36.7011 -84.6261 68° East 398 458 33,000  Level Indianapolis Center
Tue 08:01:18 AM 36.7433 -84.4967 68° East 400 460 33,000  Level Indianapolis Center
Tue 08:02:20 AM 36.7842 -84.3689 68° East 398 458 33,000  Level Indianapolis Center
Tue 08:03:21 AM 36.8264 -84.2411 68° East 399 459 33,000  Level Indianapolis Center
Tue 08:04:23 AM 36.8672 -84.1119 68° East 401 461 33,000  Level Indianapolis Center
Tue 08:05:24 AM 36.9092 -83.9831 68° East 401 461 33,000  Level Indianapolis Center
Tue 08:06:26 AM 36.9581 -83.8333 68° East 398 458 33,000  Level Indianapolis Center
Tue 08:07:27 AM 37.0006 -83.7047 67° East 401 461 33,000  Level Indianapolis Center
Tue 08:08:29 AM 37.0411 -83.5756 68° East 400 460 33,000  Level Indianapolis Center
Tue 08:09:31 AM 37.0808 -83.4461 69° East 399 459 33,000  Level Indianapolis Center
Tue 08:10:32 AM 37.1219 -83.3164 68° East 401 461 33,000  Level Indianapolis Center
Tue 08:11:34 AM 37.1639 -83.1856 68° East 403 464 33,000  Level Indianapolis Center
Tue 08:12:36 AM 37.2044 -83.0539 69° East 403 464 33,000  Level Indianapolis Center
Tue 08:13:37 AM 37.2450 -82.9228 69° East 399 459 33,000  Level Indianapolis Center
Tue 08:14:39 AM 37.2914 -82.7700 69° East 400 460 33,000  Level Indianapolis Center
Tue 08:15:41 AM 37.3314 -82.6392 69° East 400 460 33,000  Level Indianapolis Center
Tue 08:16:42 AM 37.3700 -82.5106 69° East 394 453 33,000  Level Indianapolis Center
Tue 08:17:44 AM 37.4094 -82.3808 69° East 395 455 33,000  Level Indianapolis Center
Tue 08:18:46 AM 37.4489 -82.2500 69° East 399 459 33,000  Level Indianapolis Center
Tue 08:19:47 AM 37.4886 -82.1197 69° East 399 459 33,000  Level Indianapolis Center
Tue 08:20:49 AM 37.5272 -81.9883 70° East 400 460 33,000  Level Indianapolis Center
Tue 08:21:51 AM 37.5731 -81.8350 69° East 400 460 33,000  Level Indianapolis Center
Tue 08:22:53 AM 37.6119 -81.7044 69° East 398 458 33,000  Level Indianapolis Center
Tue 08:23:54 AM 37.6517 -81.5722 69° East 402 463 33,000  Level Indianapolis Center
Tue 08:24:56 AM 37.6908 -81.4372 70° East 403 464 33,000  Level Indianapolis Center
Tue 08:25:58 AM 37.7292 -81.3061 70° East 409 471 33,000  Level Indianapolis Center
Tue 08:27:00 AM 37.7653 -81.1769 70° East 404 465 33,000  Level Indianapolis Center
Tue 08:28:02 AM 37.8167 -81.0219 67° East 408 470 33,000  Level Indianapolis Center
Tue 08:29:04 AM 37.8614 -80.8928 66° East 408 470 33,000  Level Indianapolis Center
Tue 08:30:06 AM 37.9081 -80.7633 65° Northeast 405 466 33,000  Level Indianapolis Center
Tue 08:31:08 AM 37.9550 -80.6322 66° East 408 470 33,000 -634 Level Indianapolis Center
Tue 08:32:09 AM 38.0014 -80.5000 66° East 410 472 31,700 -1,415 Descending Indianapolis Center
Tue 08:33:11 AM 38.0508 -80.3581 66° East 407 468 30,100 -1,597 Descending Indianapolis Center
Tue 08:34:13 AM 38.1008 -80.2128 66° East 406 467 28,400 -1,500 Descending Indianapolis Center
Tue 08:35:15 AM 38.1472 -80.0853 65° Northeast 389 448 27,000 -677 Descending Indianapolis Center
Tue 08:36:17 AM 38.1906 -79.9608 66° East 394 453 27,000  Level Indianapolis Center
Tue 08:37:19 AM 38.2356 -79.8347 66° East 401 461 27,000  Level Indianapolis Center
Tue 08:38:21 AM 38.2883 -79.6839 66° East 399 459 27,000  Level Indianapolis Center
Tue 08:39:23 AM 38.3311 -79.5589 66° East 396 456 27,000  Level Indianapolis Center
Tue 08:40:32 AM 38.3856 -79.4139 64° Northeast 394 453 27,000  Level Washington Center
Tue 08:41:30 AM 38.4272 -79.2811 68° East 394 453 27,000 -305 Level Washington Center
Tue 08:42:30 AM 38.4544 -79.1417 76° East 394 453 26,400 2,975 Descending Washington Center
Tue 08:43:31 AM 38.4772 -79.0050 78° East 394 453 33,000 -836 Climbing Washington Center
Tue 08:44:32 AM 38.4969 -78.8972 77° East 394 453 24,700 -4,909 Descending Washington Center
Tue 08:45:32 AM 38.5200 -78.7361 80° East 399 459 23,100 -864 Descending Washington Center
Tue 08:46:30 AM 38.5422 -78.5939 79° East 405 466 23,000 -610 Descending Washington Center
Tue 08:47:30 AM 38.5647 -78.4486 79° East 412 474 21,900 -1,600 Descending Washington Center
Tue 08:48:30 AM 38.5867 -78.3142 78° East 407 468 19,800 -1,835 Descending Washington Center
Tue 08:49:31 AM 38.6164 -78.1875 73° East 385 443 18,200 -1,426 Descending Washington Center
Tue 08:50:32 AM 38.6522 -78.0800 67° East 347 399 16,900 -1,388 Descending Washington Center
Tue 08:51:32 AM 38.6833 -77.9800 68° East 322 371 15,400 -1,525 Descending Washington Center
Tue 08:52:30 AM 38.7144 -77.8825 68° East 302 348 13,900 -1,412 Descending Washington Center
Tue 08:53:31 AM 38.7556 -77.7933 59° Northeast 286 329 12,600 -1,388 Descending Washington Center
Tue 08:54:31 AM 38.8136 -77.7069 49° Northeast 281 323 11,100 -1,289 Descending Washington Center
Tue 08:55:32 AM 38.8547 -77.6175 59° Northeast 287 330 10,000 -1,130 Descending Washington Center
Tue 08:56:49 AM 38.9000 -77.4833 67° East 282 325 8,500 -1,226 Descending Potomac TRACON
Tue 08:57:49 AM 38.8833 -77.4000 104° East 281 323 7,200 -789 Descending Potomac TRACON
Tue 08:58:43 AM 38.8667 -77.3333 108° East 252 290 7,000 -105 Descending Potomac TRACON
Tue 08:59:43 AM 38.8167 -77.2500 128° Southeast 251 289 7,000  Level Potomac TRACON
Tue 09:00:43 AM 38.7833 -77.1667 117° Southeast 251 289 7,000 -368 Level Potomac TRACON
Tue 09:01:37 AM 38.7500 -77.1167 131° Southeast 250 288 6,300 -579 Descending Potomac TRACON
Tue 09:02:37 AM 38.6833 -77.1167 180° South 209 241 5,900 -905 Descending Potomac TRACON
Tue 09:03:43 AM 38.6333 -77.1000 165° South 203 234 4,400 -898 Descending Potomac TRACON
Tue 09:04:44 AM 38.5667 -77.1000 180° South 184 212 4,000 -209 Descending Potomac TRACON
Tue 09:05:38 AM 38.5333 -77.0667 142° Southeast 199 229 4,000 -474 Level Potomac TRACON
Tue 09:06:38 AM 38.5500 -77.0000 72° East 195 224 3,100 -645 Descending Potomac TRACON
Tue 09:07:39 AM 38.6000 -77.0167 345° North 176 203 2,700 -298 Descending Potomac TRACON
Tue 09:08:39 AM 38.6500 -77.0167 360° North 177 204 2,500 -200 Descending Potomac TRACON

Login

Don't have an account? Register now (free) for customized features, flight alerts, and more!